createdAt,value
2023-03-12T00:00:23.077Z,1.27
2023-03-12T00:02:52.865Z,1.22
2023-03-12T00:05:22.090Z,1.21
2023-03-12T00:07:50.263Z,1.30
2023-03-12T00:10:19.614Z,1.36
2023-03-12T00:12:47.565Z,1.42
2023-03-12T00:15:15.233Z,1.44
2023-03-12T00:17:42.981Z,1.43
2023-03-12T00:20:14.980Z,1.45
2023-03-12T00:22:42.973Z,1.41
2023-03-12T00:25:14.840Z,1.42
2023-03-12T00:27:43.642Z,1.39
2023-03-12T00:30:12.516Z,1.35
2023-03-12T00:32:40.237Z,1.38
2023-03-12T00:35:08.988Z,1.38
2023-03-12T00:37:38.018Z,1.41
2023-03-12T00:40:09.337Z,1.38
2023-03-12T00:42:36.922Z,1.41
2023-03-12T00:45:06.361Z,1.37
2023-03-12T00:47:34.009Z,1.36
2023-03-12T00:50:02.002Z,1.38
2023-03-12T00:52:30.031Z,1.35
2023-03-12T00:54:58.477Z,1.34
2023-03-12T00:57:26.350Z,1.29
2023-03-12T00:59:54.216Z,1.24
2023-03-12T01:02:22.352Z,1.18
2023-03-12T01:04:50.036Z,1.14
2023-03-12T01:07:17.801Z,1.11
2023-03-12T01:09:45.806Z,1.01
2023-03-12T01:12:13.666Z,0.93
2023-03-12T01:14:41.499Z,0.91
2023-03-12T01:17:09.369Z,0.87
2023-03-12T01:19:37.076Z,0.85
2023-03-12T01:22:04.816Z,0.83
2023-03-12T01:24:32.620Z,0.86
2023-03-12T01:27:00.624Z,0.84
2023-03-12T01:29:28.371Z,0.88
2023-03-12T01:31:56.224Z,0.87
2023-03-12T01:34:24.265Z,0.85
2023-03-12T01:36:52.225Z,0.84
2023-03-12T01:39:20.322Z,0.86
2023-03-12T01:41:48.192Z,0.84
2023-03-12T01:44:16.116Z,0.87
2023-03-12T01:46:45.677Z,0.88
2023-03-12T01:49:23.541Z,0.90
2023-03-12T01:52:08.979Z,0.90
2023-03-12T01:54:46.721Z,0.95
2023-03-12T01:57:19.060Z,0.98
2023-03-12T01:59:52.258Z,1.04
2023-03-12T02:02:23.118Z,1.05
2023-03-12T02:04:59.038Z,1.05
2023-03-12T02:07:26.808Z,1.05
2023-03-12T02:09:54.595Z,1.06
2023-03-12T02:12:22.307Z,1.05
2023-03-12T02:14:50.221Z,1.04
2023-03-12T02:17:18.085Z,1.05
2023-03-12T02:19:57.300Z,1.10
2023-03-12T02:22:25.315Z,1.14
2023-03-12T02:25:19.548Z,1.16
2023-03-12T02:27:48.302Z,1.18
2023-03-12T02:30:17.145Z,1.20
2023-03-12T02:32:48.720Z,1.22
2023-03-12T02:35:17.475Z,1.30
2023-03-12T02:37:54.709Z,1.28
2023-03-12T02:40:39.184Z,1.33
2023-03-12T02:43:09.528Z,1.26
2023-03-12T02:45:38.573Z,1.21
2023-03-12T02:48:08.883Z,1.15
2023-03-12T02:50:36.803Z,1.11
2023-03-12T02:53:05.060Z,1.08
2023-03-12T02:55:33.415Z,1.02
2023-03-12T02:58:01.611Z,0.96
2023-03-12T03:00:31.712Z,0.94
2023-03-12T03:03:01.617Z,0.87
2023-03-12T03:05:29.307Z,0.81
2023-03-12T03:07:56.898Z,0.78
2023-03-12T03:10:24.691Z,0.78
2023-03-12T03:12:52.301Z,0.77
2023-03-12T03:15:20.173Z,0.78
2023-03-12T03:17:47.727Z,0.74
2023-03-12T03:20:15.913Z,0.71
2023-03-12T03:22:43.455Z,0.67
2023-03-12T03:25:11.523Z,0.67
2023-03-12T03:27:39.373Z,0.69
2023-03-12T03:30:09.370Z,0.67
2023-03-12T03:32:39.592Z,0.66
2023-03-12T03:35:09.475Z,0.65
2023-03-12T03:37:37.129Z,0.62
2023-03-12T03:40:08.763Z,0.62
2023-03-12T03:42:38.378Z,0.63
2023-03-12T03:45:08.910Z,0.61
2023-03-12T03:47:36.912Z,0.64
2023-03-12T03:50:06.642Z,0.68
2023-03-12T03:52:34.584Z,0.68
2023-03-12T03:55:02.225Z,0.68
2023-03-12T03:57:31.466Z,0.72
2023-03-12T04:00:03.063Z,0.75
2023-03-12T04:02:29.949Z,0.74
2023-03-12T04:04:58.640Z,0.75
2023-03-12T04:07:28.190Z,0.70
2023-03-12T04:09:57.736Z,0.66
2023-03-12T04:12:27.701Z,0.66
2023-03-12T04:14:55.969Z,0.69
2023-03-12T04:17:23.681Z,0.67
2023-03-12T04:19:51.519Z,0.67
2023-03-12T04:22:19.402Z,0.64
2023-03-12T04:24:47.065Z,0.64
2023-03-12T04:27:15.484Z,0.60
2023-03-12T04:29:44.780Z,0.59
2023-03-12T04:32:12.732Z,0.56
2023-03-12T04:34:40.553Z,0.54
2023-03-12T04:37:11.212Z,0.55
2023-03-12T04:39:39.555Z,0.56
2023-03-12T04:42:08.445Z,0.47
2023-03-12T04:44:37.684Z,0.45
2023-03-12T04:47:06.266Z,0.45
2023-03-12T04:49:34.621Z,0.43
2023-03-12T04:52:02.614Z,0.46
2023-03-12T04:54:31.419Z,0.46
2023-03-12T04:56:59.408Z,0.46
2023-03-12T04:59:27.832Z,0.48
2023-03-12T05:01:55.780Z,0.51
2023-03-12T05:04:25.378Z,0.52
2023-03-12T05:06:53.353Z,0.52
2023-03-12T05:09:20.888Z,0.55
2023-03-12T05:11:48.893Z,0.51
2023-03-12T05:14:18.054Z,0.47
2023-03-12T05:16:46.353Z,0.40
2023-03-12T05:19:14.177Z,0.39
2023-03-12T05:21:43.411Z,0.35
2023-03-12T05:24:11.651Z,0.34
2023-03-12T05:26:39.756Z,0.28
2023-03-12T05:29:11.923Z,0.31
2023-03-12T05:31:39.864Z,0.34
2023-03-12T05:34:08.471Z,0.34
2023-03-12T05:36:38.361Z,0.37
2023-03-12T05:39:07.198Z,0.38
2023-03-12T05:41:35.219Z,0.35
2023-03-12T05:44:09.351Z,0.33
2023-03-12T05:46:37.145Z,0.37
2023-03-12T05:49:05.723Z,0.39
2023-03-12T05:51:33.627Z,0.39
2023-03-12T05:54:02.212Z,0.39
2023-03-12T05:56:29.908Z,0.37
2023-03-12T05:58:57.625Z,0.41
2023-03-12T06:01:28.943Z,0.45
2023-03-12T06:03:58.924Z,0.53
2023-03-12T06:06:26.979Z,0.63
2023-03-12T06:08:55.333Z,0.66
2023-03-12T06:11:23.038Z,0.66
2023-03-12T06:13:51.133Z,0.59
2023-03-12T06:16:23.300Z,0.53
2023-03-12T06:18:56.346Z,0.51
2023-03-12T06:21:28.074Z,0.59
2023-03-12T06:23:57.044Z,0.66
2023-03-12T06:26:33.998Z,0.62
2023-03-12T06:29:02.021Z,0.72
2023-03-12T06:31:29.707Z,0.79
2023-03-12T06:33:57.687Z,0.80
2023-03-12T06:36:25.313Z,0.83
2023-03-12T06:38:56.583Z,0.77
2023-03-12T06:41:23.066Z,0.77
2023-03-12T06:43:51.072Z,0.80
2023-03-12T06:46:25.254Z,0.84
2023-03-12T06:48:52.958Z,0.90
2023-03-12T06:51:20.859Z,0.93
2023-03-12T06:53:48.472Z,0.93
2023-03-12T06:56:16.833Z,0.91
2023-03-12T06:58:44.632Z,0.92
2023-03-12T07:01:12.451Z,0.91
2023-03-12T07:03:40.548Z,0.98
2023-03-12T07:06:17.443Z,1.03
2023-03-12T07:08:46.181Z,1.04
2023-03-12T07:11:14.319Z,1.05
2023-03-12T07:13:42.342Z,1.05
2023-03-12T07:16:10.758Z,1.03
2023-03-12T07:18:38.664Z,1.09
2023-03-12T07:21:07.040Z,1.19
2023-03-12T07:23:34.742Z,1.27
2023-03-12T07:26:05.062Z,1.23
2023-03-12T07:28:32.741Z,1.24
2023-03-12T07:31:03.973Z,1.38
2023-03-12T07:33:32.087Z,1.59
2023-03-12T07:36:00.951Z,1.82
2023-03-12T07:38:28.811Z,2.01
2023-03-12T07:40:58.350Z,2.03
2023-03-12T07:43:26.736Z,2.10
2023-03-12T07:45:55.382Z,1.93
2023-03-12T07:48:23.078Z,2.05
2023-03-12T07:50:50.994Z,2.11
2023-03-12T07:53:19.369Z,2.27
2023-03-12T07:55:48.231Z,2.48
2023-03-12T07:58:17.170Z,2.67
2023-03-12T08:00:45.287Z,2.74
2023-03-12T08:03:13.384Z,2.70
2023-03-12T08:05:41.694Z,2.44
2023-03-12T08:08:09.786Z,2.35
2023-03-12T08:10:37.467Z,2.39
2023-03-12T08:13:05.257Z,2.58
2023-03-12T08:15:33.162Z,2.66
2023-03-12T08:18:01.120Z,2.62
2023-03-12T08:20:31.706Z,2.56
2023-03-12T08:22:59.637Z,2.50
2023-03-12T08:25:27.235Z,2.48
2023-03-12T08:27:55.094Z,2.50
2023-03-12T08:30:22.959Z,2.45
2023-03-12T08:32:50.592Z,2.42
2023-03-12T08:35:18.550Z,2.52
2023-03-12T08:37:46.101Z,2.75
2023-03-12T08:40:14.489Z,2.91
2023-03-12T08:42:45.196Z,3.06
2023-03-12T08:45:15.234Z,3.11
2023-03-12T08:47:44.032Z,3.14
2023-03-12T08:50:16.211Z,3.19
2023-03-12T08:52:44.476Z,3.16
2023-03-12T08:55:12.556Z,3.23
2023-03-12T08:57:40.628Z,3.20
2023-03-12T09:00:12.105Z,3.21
2023-03-12T09:02:39.857Z,3.29
2023-03-12T09:05:08.072Z,3.38
2023-03-12T09:07:36.001Z,3.48
2023-03-12T09:10:04.984Z,3.36
2023-03-12T09:12:32.870Z,3.26
2023-03-12T09:15:03.804Z,3.20
2023-03-12T09:17:29.975Z,3.30
2023-03-12T09:19:57.533Z,3.43
2023-03-12T09:22:25.398Z,3.47
2023-03-12T09:24:53.008Z,3.41
2023-03-12T09:27:20.532Z,3.39
2023-03-12T09:29:59.518Z,3.41
2023-03-12T09:32:18.423Z,3.39
2023-03-12T09:34:46.078Z,3.46
2023-03-12T09:37:13.653Z,3.54
2023-03-12T09:39:41.341Z,3.58
2023-03-12T09:42:14.371Z,3.72
2023-03-12T09:44:44.874Z,3.96
2023-03-12T09:47:34.835Z,4.28
2023-03-12T09:50:22.929Z,4.56
2023-03-12T09:53:32.430Z,4.77
2023-03-12T09:56:05.877Z,4.86
2023-03-12T09:58:37.105Z,4.85
2023-03-12T10:01:16.169Z,4.85
2023-03-12T10:04:19.678Z,4.91
2023-03-12T10:07:17.346Z,4.77
2023-03-12T10:10:06.809Z,4.70
2023-03-12T10:12:47.475Z,4.62
2023-03-12T10:15:31.978Z,4.50
2023-03-12T10:18:23.452Z,4.35
2023-03-12T10:21:24.203Z,4.28
2023-03-12T10:24:25.110Z,4.37
2023-03-12T10:26:55.448Z,4.56
2023-03-12T10:29:28.265Z,4.72
2023-03-12T10:32:04.112Z,4.79
2023-03-12T10:34:58.106Z,4.96
2023-03-12T10:37:49.029Z,5.19
2023-03-12T10:40:23.777Z,5.29
2023-03-12T10:42:51.693Z,5.30
2023-03-12T10:45:41.603Z,5.20
2023-03-12T10:48:14.294Z,5.34
2023-03-12T10:50:41.863Z,5.51
2023-03-12T10:53:30.222Z,5.42
2023-03-12T10:56:10.980Z,5.36
2023-03-12T10:58:48.806Z,5.40
2023-03-12T11:01:23.865Z,5.58
2023-03-12T11:03:54.543Z,5.81
2023-03-12T11:06:27.193Z,5.91
2023-03-12T11:09:16.657Z,5.97
2023-03-12T11:11:38.877Z,6.08
2023-03-12T11:14:12.742Z,6.06
2023-03-12T11:16:40.608Z,6.13
2023-03-12T11:19:15.451Z,6.28
2023-03-12T11:21:57.185Z,6.42
2023-03-12T11:24:24.806Z,6.37
2023-03-12T11:27:09.177Z,6.34
2023-03-12T11:29:42.952Z,6.41
2023-03-12T11:32:33.436Z,6.52
2023-03-12T11:35:01.980Z,6.39
2023-03-12T11:37:57.700Z,6.18
2023-03-12T11:40:48.626Z,5.93
2023-03-12T11:43:41.689Z,5.71
2023-03-12T11:46:08.856Z,5.80
2023-03-12T11:48:53.841Z,6.04
2023-03-12T11:51:48.186Z,6.24
2023-03-12T11:54:45.250Z,6.42
2023-03-12T11:57:42.176Z,6.36
2023-03-12T12:00:15.563Z,6.34
2023-03-12T12:03:00.356Z,6.52
2023-03-12T12:06:06.763Z,6.75
2023-03-12T12:09:18.547Z,6.97
2023-03-12T12:12:15.567Z,7.12
2023-03-12T12:15:09.523Z,7.17
2023-03-12T12:18:18.665Z,7.27
2023-03-12T12:21:01.158Z,7.41
2023-03-12T12:24:00.134Z,7.68
2023-03-12T12:26:52.780Z,7.96
2023-03-12T12:29:48.822Z,8.11
2023-03-12T12:32:21.934Z,8.07
2023-03-12T12:35:07.026Z,8.13
2023-03-12T12:37:52.231Z,8.20
2023-03-12T12:40:30.721Z,8.28
2023-03-12T12:43:36.703Z,8.34
2023-03-12T12:46:09.335Z,8.37
2023-03-12T12:49:01.345Z,8.42
2023-03-12T12:51:36.711Z,8.40
2023-03-12T12:54:25.102Z,8.42
2023-03-12T12:57:06.756Z,8.36
2023-03-12T12:59:51.890Z,8.37
2023-03-12T13:02:23.293Z,8.34
2023-03-12T13:04:50.995Z,8.27
2023-03-12T13:07:25.848Z,8.37
2023-03-12T13:09:58.321Z,8.52
2023-03-12T13:12:42.990Z,8.70
2023-03-12T13:15:33.822Z,8.89
2023-03-12T13:18:08.658Z,8.98
2023-03-12T13:20:53.232Z,8.98
2023-03-12T13:24:02.467Z,9.07
2023-03-12T13:26:50.108Z,9.27
2023-03-12T13:29:32.192Z,9.54
2023-03-12T13:31:59.679Z,9.72
2023-03-12T13:34:31.865Z,9.79
2023-03-12T13:37:04.722Z,9.73
2023-03-12T13:39:35.812Z,9.65
2023-03-12T13:42:44.396Z,9.47
2023-03-12T13:45:26.422Z,9.31
2023-03-12T13:47:59.017Z,9.21
2023-03-12T13:50:28.827Z,9.28
2023-03-12T13:53:06.867Z,9.41
2023-03-12T13:55:36.773Z,9.49
2023-03-12T13:58:19.597Z,9.57
2023-03-12T14:00:58.288Z,9.60
2023-03-12T14:03:38.663Z,9.67
2023-03-12T14:06:13.645Z,9.67
2023-03-12T14:09:04.782Z,9.64
2023-03-12T14:11:57.765Z,9.56
2023-03-12T14:14:53.917Z,9.58
2023-03-12T14:17:26.844Z,9.72
2023-03-12T14:20:16.991Z,9.82
2023-03-12T14:22:52.036Z,9.80
2023-03-12T14:25:27.787Z,9.72
2023-03-12T14:27:55.881Z,9.71
2023-03-12T14:30:45.255Z,9.57
2023-03-12T14:33:15.749Z,9.48
2023-03-12T14:36:14.481Z,9.29
2023-03-12T14:38:45.736Z,9.22
2023-03-12T14:41:21.037Z,9.23
2023-03-12T14:43:52.666Z,9.18
2023-03-12T14:46:23.936Z,9.20
2023-03-12T14:48:57.349Z,9.07
2023-03-12T14:51:27.729Z,8.89
2023-03-12T14:53:56.979Z,8.76
2023-03-12T14:56:32.830Z,8.75
2023-03-12T14:59:21.603Z,8.68
2023-03-12T15:01:49.774Z,8.58
2023-03-12T15:04:22.133Z,8.48
2023-03-12T15:06:54.201Z,8.33
2023-03-12T15:09:26.173Z,8.29
2023-03-12T15:12:06.973Z,8.22
2023-03-12T15:14:38.891Z,7.99
2023-03-12T15:17:07.481Z,7.91
2023-03-12T15:19:39.760Z,7.90
2023-03-12T15:22:15.009Z,7.93
2023-03-12T15:24:43.533Z,7.98
2023-03-12T15:27:28.762Z,8.01
2023-03-12T15:29:59.131Z,7.99
2023-03-12T15:32:29.976Z,7.84
2023-03-12T15:34:59.356Z,7.78
2023-03-12T15:37:34.279Z,7.81
2023-03-12T15:40:06.142Z,7.87
2023-03-12T15:42:41.331Z,7.79
2023-03-12T15:45:19.766Z,7.67
2023-03-12T15:47:48.467Z,7.62
2023-03-12T15:50:38.814Z,7.63
2023-03-12T15:53:14.479Z,7.59
2023-03-12T15:55:42.987Z,7.50
2023-03-12T15:58:32.552Z,7.36
2023-03-12T16:01:14.280Z,7.20
2023-03-12T16:03:44.948Z,7.02
2023-03-12T16:06:28.539Z,6.89
2023-03-12T16:08:59.915Z,6.77
2023-03-12T16:11:31.967Z,6.63
2023-03-12T16:14:19.019Z,6.52
2023-03-12T16:16:47.557Z,6.44
2023-03-12T16:19:19.361Z,6.41
2023-03-12T16:21:48.008Z,6.37
2023-03-12T16:24:16.240Z,6.28
2023-03-12T16:26:54.420Z,6.14
2023-03-12T16:29:26.071Z,5.99
2023-03-12T16:31:55.721Z,5.89
2023-03-12T16:34:23.803Z,5.78
2023-03-12T16:36:51.898Z,5.68
2023-03-12T16:39:20.091Z,5.57
2023-03-12T16:41:47.840Z,5.48
2023-03-12T16:44:21.316Z,5.42
2023-03-12T16:46:49.175Z,5.40
2023-03-12T16:49:19.596Z,5.42
2023-03-12T16:51:47.512Z,5.45
2023-03-12T16:54:15.308Z,5.47
2023-03-12T16:56:47.693Z,5.49
2023-03-12T16:59:25.561Z,5.49
2023-03-12T17:01:53.727Z,5.46
2023-03-12T17:04:21.433Z,5.42
2023-03-12T17:06:49.205Z,5.38
2023-03-12T17:09:18.429Z,5.34
2023-03-12T17:11:49.855Z,5.31
2023-03-12T17:14:21.677Z,5.27
2023-03-12T17:16:50.453Z,5.25
2023-03-12T17:19:18.343Z,5.25
2023-03-12T17:21:47.870Z,5.27
2023-03-12T17:24:16.442Z,5.23
2023-03-12T17:26:45.910Z,5.18
2023-03-12T17:29:13.671Z,5.17
2023-03-12T17:31:41.431Z,5.16
2023-03-12T17:34:09.050Z,5.13
2023-03-12T17:36:37.793Z,5.13
2023-03-12T17:39:05.766Z,5.08
2023-03-12T17:41:33.856Z,5.00
2023-03-12T17:44:03.155Z,4.93
2023-03-12T17:46:31.566Z,4.83
2023-03-12T17:48:59.203Z,4.71
2023-03-12T17:51:26.897Z,4.63
2023-03-12T17:53:54.938Z,4.52
2023-03-12T17:56:23.774Z,4.40
2023-03-12T17:58:51.474Z,4.28
2023-03-12T18:01:19.541Z,4.17
2023-03-12T18:03:50.362Z,4.06
2023-03-12T18:06:19.897Z,3.95
2023-03-12T18:08:47.874Z,3.83
2023-03-12T18:11:15.452Z,3.72
2023-03-12T18:13:43.040Z,3.63
2023-03-12T18:16:10.754Z,3.54
2023-03-12T18:18:38.568Z,3.46
2023-03-12T18:21:06.609Z,3.43
2023-03-12T18:23:34.337Z,3.42
2023-03-12T18:26:03.375Z,3.38
2023-03-12T18:28:33.785Z,3.36
2023-03-12T18:31:01.406Z,3.34
2023-03-12T18:33:30.339Z,3.35
2023-03-12T18:35:58.193Z,3.33
2023-03-12T18:38:26.185Z,3.35
2023-03-12T18:41:08.158Z,3.34
2023-03-12T18:43:36.588Z,3.30
2023-03-12T18:46:05.535Z,3.23
2023-03-12T18:48:32.981Z,3.16
2023-03-12T18:51:00.968Z,3.11
2023-03-12T18:53:33.359Z,3.09
2023-03-12T18:56:02.657Z,3.06
2023-03-12T18:58:30.249Z,3.04
2023-03-12T19:00:58.835Z,3.03
2023-03-12T19:03:26.761Z,3.03
2023-03-12T19:06:07.874Z,3.00
2023-03-12T19:08:36.962Z,2.97
2023-03-12T19:11:12.045Z,2.94
2023-03-12T19:13:40.122Z,2.88
2023-03-12T19:16:10.641Z,2.86
2023-03-12T19:18:39.529Z,2.83
2023-03-12T19:21:08.100Z,2.78
2023-03-12T19:23:36.090Z,2.76
2023-03-12T19:26:04.652Z,2.69
2023-03-12T19:28:32.224Z,2.64
2023-03-12T19:31:06.895Z,2.61
2023-03-12T19:33:36.152Z,2.61
2023-03-12T19:36:04.892Z,2.58
2023-03-12T19:38:33.208Z,2.55
2023-03-12T19:41:01.107Z,2.53
2023-03-12T19:43:29.287Z,2.49
2023-03-12T19:45:57.135Z,2.46
2023-03-12T19:48:24.960Z,2.44
2023-03-12T19:50:54.371Z,2.39
2023-03-12T19:53:22.578Z,2.32
2023-03-12T19:55:50.617Z,2.29
2023-03-12T19:58:18.647Z,2.24
2023-03-12T20:00:48.979Z,2.19
2023-03-12T20:03:16.740Z,2.16
2023-03-12T20:05:45.058Z,2.12
2023-03-12T20:08:13.324Z,2.06
2023-03-12T20:10:41.068Z,2.05
2023-03-12T20:13:10.625Z,2.03
2023-03-12T20:15:39.721Z,2.02
2023-03-12T20:18:07.276Z,1.99
2023-03-12T20:20:34.975Z,1.96
2023-03-12T20:23:03.996Z,1.94
2023-03-12T20:25:32.986Z,1.88
2023-03-12T20:28:00.773Z,1.82
2023-03-12T20:30:28.655Z,1.78
2023-03-12T20:32:56.174Z,1.73
2023-03-12T20:35:23.915Z,1.70
2023-03-12T20:37:51.751Z,1.71
2023-03-12T20:40:19.982Z,1.70
2023-03-12T20:42:47.542Z,1.68
2023-03-12T20:45:15.372Z,1.64
2023-03-12T20:47:43.062Z,1.61
2023-03-12T20:50:11.758Z,1.60
2023-03-12T20:52:39.711Z,1.60
2023-03-12T20:55:08.136Z,1.60
2023-03-12T20:57:36.020Z,1.61
2023-03-12T21:00:05.172Z,1.63
2023-03-12T21:02:32.816Z,1.63
2023-03-12T21:05:00.403Z,1.66
2023-03-12T21:07:28.177Z,1.60
2023-03-12T21:09:56.039Z,1.57
2023-03-12T21:12:23.704Z,1.56
2023-03-12T21:14:51.333Z,1.52
2023-03-12T21:17:18.940Z,1.48
2023-03-12T21:19:46.795Z,1.47
2023-03-12T21:22:14.514Z,1.47
2023-03-12T21:24:42.107Z,1.48
2023-03-12T21:27:10.795Z,1.48
2023-03-12T21:29:38.451Z,1.49
2023-03-12T21:32:07.465Z,1.48
2023-03-12T21:34:36.242Z,1.49
2023-03-12T21:37:05.263Z,1.50
2023-03-12T21:39:34.118Z,1.49
2023-03-12T21:42:01.980Z,1.49
2023-03-12T21:44:29.564Z,1.47
2023-03-12T21:46:58.297Z,1.44
2023-03-12T21:49:26.254Z,1.48
2023-03-12T21:51:53.965Z,1.49
2023-03-12T21:54:21.441Z,1.52
2023-03-12T21:56:49.495Z,1.52
2023-03-12T21:59:17.029Z,1.53
2023-03-12T22:01:44.432Z,1.52
2023-03-12T22:04:12.505Z,1.51
2023-03-12T22:06:42.002Z,1.48
2023-03-12T22:09:09.444Z,1.46
2023-03-12T22:11:37.320Z,1.45
2023-03-12T22:14:04.822Z,1.49
2023-03-12T22:16:32.585Z,1.54
2023-03-12T22:19:00.518Z,1.61
2023-03-12T22:21:28.199Z,1.67
2023-03-12T22:23:56.801Z,1.69
2023-03-12T22:26:27.544Z,1.66
2023-03-12T22:28:57.426Z,1.62
2023-03-12T22:31:28.610Z,1.55
2023-03-12T22:33:57.000Z,1.53
2023-03-12T22:36:24.950Z,1.48
2023-03-12T22:38:52.813Z,1.46
2023-03-12T22:41:29.166Z,1.44
2023-03-12T22:44:04.345Z,1.40
2023-03-12T22:46:32.414Z,1.37
2023-03-12T22:49:02.569Z,1.35
2023-03-12T22:51:33.083Z,1.32
2023-03-12T22:54:02.708Z,1.28
2023-03-12T22:56:30.398Z,1.23
2023-03-12T22:58:58.570Z,1.19
2023-03-12T23:01:26.427Z,1.15
2023-03-12T23:03:54.366Z,1.12
2023-03-12T23:06:26.125Z,1.08
2023-03-12T23:08:54.760Z,1.07
2023-03-12T23:11:25.030Z,1.05
2023-03-12T23:13:53.528Z,1.04
2023-03-12T23:16:24.547Z,1.04
2023-03-12T23:18:52.474Z,1.05
2023-03-12T23:21:22.950Z,1.00
2023-03-12T23:23:51.853Z,0.96
2023-03-12T23:26:23.683Z,0.94
2023-03-12T23:28:52.901Z,0.92
2023-03-12T23:31:21.079Z,0.86
2023-03-12T23:33:48.799Z,0.84
2023-03-12T23:36:20.571Z,0.78
2023-03-12T23:38:49.850Z,0.76
2023-03-12T23:41:24.199Z,0.76
2023-03-12T23:43:52.815Z,0.80
2023-03-12T23:46:21.103Z,0.77
2023-03-12T23:48:49.553Z,0.76
2023-03-12T23:51:20.805Z,0.74
2023-03-12T23:53:52.293Z,0.77
2023-03-12T23:56:23.523Z,0.82
2023-03-12T23:58:51.550Z,0.89
